Ifestos 3 — SW7225 — position and weather

sailwx.info

Track history (hours):
 
Tides and Currents Weather Stations Pressure Air Temp Water Temp Dewpoint Dewpoint Depression Visibility Wind Speed Wind Dir Waves Ship Positions

Ifestos 3

Last reported at 2017-Nov-17 11:08 UTC. Time now 2017-Nov-17 19:46 UTC.
Position N 37°57' E 023°37'.

Length 30 m; draft 2.9 m.

Type: Tug. MMSI: 240612000.

Date/timePositionNaut miles runAvg speedWind from/ knotsBaromVisibWave heightAir tempDewpointWater temp
2017-Nov-17 11:08N 37°57' E 023°37'0 0.0
2017-Nov-17 11:00N 37°57' E 023°37'0 0.0
2017-Nov-17 10:31N 37°57' E 023°37'0 0.0
2017-Nov-17 10:00N 37°57' E 023°37'0 0.0
2017-Nov-17 09:31N 37°57' E 023°37'0 0.0
2017-Nov-17 09:00N 37°57' E 023°37'1 1.6
2017-Nov-17 08:31N 37°57' E 023°36'0 0.3
2017-Nov-17 08:01N 37°57' E 023°36'0 0.0
2017-Nov-17 07:30N 37°57' E 023°36'1 1.0
2017-Nov-17 07:00N 37°57' E 023°35'0 0.8
2017-Nov-17 06:31N 37°57' E 023°35'0 0.2
2017-Nov-17 06:01N 37°57' E 023°35'0 0.2
2017-Nov-17 05:31N 37°57' E 023°35'1 2.1
2017-Nov-17 05:01N 37°57' E 023°37'0 0.0
2017-Nov-17 04:31N 37°57' E 023°37'0 0.0
2017-Nov-17 04:00N 37°57' E 023°37'0 0.0
2017-Nov-17 03:31N 37°57' E 023°37'0 0.0
2017-Nov-17 03:00N 37°57' E 023°37'0 0.0
2017-Nov-17 02:31N 37°57' E 023°37'0 0.0
2017-Nov-17 02:01N 37°57' E 023°37'0 0.0
2017-Nov-17 01:31N 37°57' E 023°37'0 0.0
2017-Nov-17 01:01N 37°57' E 023°37'0 0.0
2017-Nov-17 00:31N 37°57' E 023°37'0 0.0
2017-Nov-17 00:01N 37°57' E 023°37'0 0.0
2017-Nov-16 23:30N 37°57' E 023°37'0 0.0
2017-Nov-16 23:01N 37°57' E 023°37'0 0.0
2017-Nov-16 22:31N 37°57' E 023°37'0 0.0
2017-Nov-16 22:01N 37°57' E 023°37'0 0.0
2017-Nov-16 21:30N 37°57' E 023°37'0 0.0
2017-Nov-16 21:00N 37°57' E 023°37'0 0.0
2017-Nov-16 20:31N 37°57' E 023°37'0 0.0
2017-Nov-16 20:01N 37°57' E 023°37'0 0.0
2017-Nov-16 19:31N 37°57' E 023°37'0 0.0
2017-Nov-16 19:01N 37°57' E 023°37'0 0.0
2017-Nov-16 18:30N 37°57' E 023°37'0 0.0
2017-Nov-16 18:01N 37°57' E 023°37'0 0.0
2017-Nov-16 17:31N 37°57' E 023°37'0 0.0
2017-Nov-16 17:00N 37°57' E 023°37'0 0.0
2017-Nov-16 16:31N 37°57' E 023°37'0 0.0
2017-Nov-16 16:00N 37°57' E 023°37'0 0.0
2017-Nov-16 15:31N 37°57' E 023°37'0 0.0
2017-Nov-16 15:01N 37°57' E 023°37'0 0.0
2017-Nov-16 14:31N 37°57' E 023°37'0 0.0
2017-Nov-16 14:01N 37°57' E 023°37'0 0.7
2017-Nov-16 13:31N 37°57' E 023°36'0 0.4
2017-Nov-16 13:01N 37°58' E 023°36'0 0.5
2017-Nov-16 12:31N 37°57' E 023°36'0 0.1
2017-Nov-16 12:01N 37°57' E 023°37'0 0.0
2017-Nov-16 11:31N 37°57' E 023°37'0 0.0
2017-Nov-16 11:00N 37°57' E 023°37'0 0.0
2017-Nov-16 10:30N 37°57' E 023°37'0 0.0
2017-Nov-16 10:00N 37°57' E 023°37'0 0.0
2017-Nov-16 09:31N 37°57' E 023°37'3 6.0
2017-Nov-16 09:01N 37°58' E 023°33'1 1.1
2017-Nov-16 08:31N 37°58' E 023°33'3 5.4
2017-Nov-16 08:00N 37°57' E 023°37'0 0.1
2017-Nov-16 07:31N 37°57' E 023°37'0 0.7
2017-Nov-16 07:01N 37°57' E 023°36'0 0.1
2017-Nov-16 06:31N 37°57' E 023°36'0 0.7
2017-Nov-16 06:00N 37°57' E 023°37'0 0.0
2017-Nov-16 05:30N 37°57' E 023°37'0 0.0
2017-Nov-16 05:01N 37°57' E 023°37'0 0.0
2017-Nov-16 04:31N 37°57' E 023°37'0 0.0
2017-Nov-16 04:01N 37°57' E 023°37'0 0.0
2017-Nov-16 03:31N 37°57' E 023°37'0 0.0
2017-Nov-16 03:01N 37°57' E 023°37'0 0.0
2017-Nov-16 02:31N 37°57' E 023°37'0 0.0
2017-Nov-16 02:00N 37°57' E 023°37'0 0.0
2017-Nov-16 01:31N 37°57' E 023°37'0 0.0
2017-Nov-16 01:01N 37°57' E 023°37'0 0.0
2017-Nov-16 00:31N 37°57' E 023°37'0 0.0
2017-Nov-16 00:01N 37°57' E 023°37'0 0.0
2017-Nov-15 23:31N 37°57' E 023°37'0 0.0
2017-Nov-15 23:01N 37°57' E 023°37'2 3.2
2017-Nov-15 22:31N 37°57' E 023°35'4 8.7
2017-Nov-15 22:00N 38°01' E 023°32'1 2.9
2017-Nov-15 21:30N 38°02' E 023°30'0 0.6
2017-Nov-15 21:01N 38°02' E 023°31'0 0.0
2017-Nov-15 20:30N 38°02' E 023°31'0 0.0
2017-Nov-15 20:00N 38°02' E 023°31'0 0.0
2017-Nov-15 19:30N 38°02' E 023°31'0 0.0
2017-Nov-15 19:00N 38°02' E 023°31'0 0.0
2017-Nov-15 18:30N 38°02' E 023°31'0 0.0
2017-Nov-15 18:00N 38°02' E 023°31'0 0.0
2017-Nov-15 17:03N 38°02' E 023°31'0 0.0
2017-Nov-15 17:00N 38°02' E 023°31'0 0.0
2017-Nov-15 16:30N 38°02' E 023°31'0 0.0
2017-Nov-15 16:01N 38°02' E 023°31'0 0.0
2017-Nov-15 14:30N 38°02' E 023°31'0 0.0
2017-Nov-15 14:00N 38°02' E 023°31'0 0.0
2017-Nov-15 13:30N 38°02' E 023°31'0 0.0
2017-Nov-15 13:01N 38°02' E 023°31'0 0.0
2017-Nov-15 12:30N 38°02' E 023°31'0 0.0
2017-Nov-15 12:00N 38°02' E 023°31'0 0.0
2017-Nov-15 11:30N 38°02' E 023°31'0 0.0
2017-Nov-15 11:01N 38°02' E 023°31'0 0.0
2017-Nov-15 10:29N 38°02' E 023°31'0 0.0
2017-Nov-15 09:57N 38°02' E 023°31'0 0.0
2017-Nov-15 09:29N 38°02' E 023°31'0 0.0
2017-Nov-15 09:00N 38°02' E 023°31'0 0.0
2017-Nov-15 08:30N 38°02' E 023°31'0 0.0
2017-Nov-15 08:01N 38°02' E 023°31'0 0.0
2017-Nov-15 07:30N 38°02' E 023°31'0 0.0
2017-Nov-15 07:00N 38°02' E 023°31'0 0.0
2017-Nov-15 06:30N 38°02' E 023°31'0 0.0
2017-Nov-15 06:00N 38°02' E 023°31'0 0.0
2017-Nov-15 05:30N 38°02' E 023°31'0 0.0
2017-Nov-15 05:00N 38°02' E 023°31'0 0.0
2017-Nov-15 04:30N 38°02' E 023°31'0 0.0
2017-Nov-15 04:00N 38°02' E 023°31'0 0.0
2017-Nov-15 03:30N 38°02' E 023°31'0 0.0
2017-Nov-15 02:59N 38°02' E 023°31'0 0.0
2017-Nov-15 02:30N 38°02' E 023°31'0 0.0
2017-Nov-15 02:00N 38°02' E 023°31'0 0.0
2017-Nov-15 01:30N 38°02' E 023°31'0 0.0
2017-Nov-15 01:00N 38°02' E 023°31'0 0.0
2017-Nov-15 00:30N 38°02' E 023°31'0 0.0
2017-Nov-15 00:00N 38°02' E 023°31'0 0.0
2017-Nov-14 23:30N 38°02' E 023°31'0 0.0
2017-Nov-14 22:58N 38°02' E 023°31'0 0.0
2017-Nov-14 22:30N 38°02' E 023°31'0 0.0
2017-Nov-14 22:00N 38°02' E 023°31'0 0.0
2017-Nov-14 21:30N 38°02' E 023°31'1 2.4
2017-Nov-14 21:00N 38°02' E 023°32'0 0.0
2017-Nov-14 20:30N 38°02' E 023°32'0 0.0
2017-Nov-14 20:00N 38°02' E 023°32'0 0.0
2017-Nov-14 19:30N 38°02' E 023°32'0 0.0
2017-Nov-14 19:00N 38°02' E 023°32'0 0.0
2017-Nov-14 18:30N 38°02' E 023°32'1 1.1
2017-Nov-14 18:00N 38°02' E 023°32'1 2.0
2017-Nov-14 17:31N 38°02' E 023°30'2 3.2
2017-Nov-14 17:01N 38°01' E 023°32'2 3.6
2017-Nov-14 16:30N 37°59' E 023°33'3 6.5
2017-Nov-14 16:00N 37°57' E 023°36'3 5.2
2017-Nov-14 15:31N 37°58' E 023°33'5 9.1
2017-Nov-14 15:01N 38°02' E 023°36'0 0.5
2017-Nov-14 14:30N 38°01' E 023°35'0 0.0
2017-Nov-14 14:00N 38°01' E 023°35'0 0.0
2017-Nov-14 13:30N 38°01' E 023°35'0 0.0
2017-Nov-14 13:01N 38°01' E 023°35'0 0.0
2017-Nov-14 12:30N 38°01' E 023°35'0 0.0
2017-Nov-14 12:00N 38°01' E 023°35'0 0.0
2017-Nov-14 11:30N 38°01' E 023°35'0 0.0
2017-Nov-14 11:01N 38°01' E 023°35'0 0.0
2017-Nov-14 10:30N 38°01' E 023°35'1 1.0
2017-Nov-14 09:59N 38°02' E 023°35'2 4.3
2017-Nov-14 09:30N 38°02' E 023°32'0 0.0
2017-Nov-14 09:00N 38°02' E 023°32'0 0.0
2017-Nov-14 08:30N 38°02' E 023°32'0 0.3
2017-Nov-14 08:01N 38°02' E 023°32'4 7.6
2017-Nov-14 07:31N 37°58' E 023°33'3 5.6
2017-Nov-14 07:01N 37°58' E 023°36'1 2.9
2017-Nov-14 06:31N 37°56' E 023°36'1 1.6
2017-Nov-14 06:01N 37°56' E 023°37'0 0.7
2017-Nov-14 05:31N 37°56' E 023°37'0 0.1
2017-Nov-14 05:01N 37°56' E 023°37'0 0.0
2017-Nov-14 04:31N 37°56' E 023°37'0 0.0
2017-Nov-14 04:01N 37°56' E 023°37'0 0.0
2017-Nov-14 03:30N 37°56' E 023°37'0 0.0
2017-Nov-14 03:01N 37°56' E 023°37'0 0.0
2017-Nov-14 02:30N 37°56' E 023°37'0 0.0
2017-Nov-14 02:01N 37°56' E 023°37'0 0.0
2017-Nov-14 01:31N 37°56' E 023°37'0 0.0
2017-Nov-14 01:01N 37°56' E 023°37'0 0.0
2017-Nov-14 00:31N 37°56' E 023°37'0 0.0
2017-Nov-14 00:01N 37°56' E 023°37'0 0.0
2017-Nov-13 23:31N 37°56' E 023°37'0 0.0
2017-Nov-13 23:00N 37°56' E 023°37'0 0.0
2017-Nov-13 22:30N 37°56' E 023°37'0 0.0
2017-Nov-13 22:01N 37°56' E 023°37'11 0.5
2017-Nov-13 02:01N 37°58' E 023°24'0 0.0
2017-Nov-13 01:31N 37°58' E 023°24'0 0.0
2017-Nov-13 01:01N 37°58' E 023°24'0 0.0
2017-Nov-13 00:31N 37°58' E 023°24'0 0.0
2017-Nov-13 00:00N 37°58' E 023°24'0 0.0
2017-Nov-12 23:31N 37°58' E 023°24'0 0.0
2017-Nov-12 23:01N 37°58' E 023°24'0 0.0
2017-Nov-12 22:31N 37°58' E 023°24'0 0.0
2017-Nov-12 22:00N 37°58' E 023°24'0 0.0
2017-Nov-12 21:31N 37°58' E 023°24'0 0.0
2017-Nov-12 21:01N 37°58' E 023°24'0 0.0
2017-Nov-12 20:31N 37°58' E 023°24'0 0.0
2017-Nov-12 20:01N 37°58' E 023°24'0 0.0
2017-Nov-12 19:31N 37°58' E 023°24'0 0.0
2017-Nov-12 19:01N 37°58' E 023°24'0 0.0
2017-Nov-12 18:30N 37°58' E 023°24'0 0.0
2017-Nov-12 18:00N 37°58' E 023°24'0 0.0
2017-Nov-12 17:30N 37°58' E 023°24'0 0.0
2017-Nov-12 17:01N 37°58' E 023°24'0 0.0
2017-Nov-12 16:31N 37°58' E 023°24'0 0.0
2017-Nov-12 16:01N 37°58' E 023°24'0 0.0
2017-Nov-12 15:30N 37°58' E 023°24'0 0.0
2017-Nov-12 15:01N 37°58' E 023°24'0 0.0
2017-Nov-12 14:31N 37°58' E 023°24'0 0.0
2017-Nov-12 14:01N 37°58' E 023°24'0 0.0
2017-Nov-12 13:31N 37°58' E 023°24'0 0.0
2017-Nov-12 13:00N 37°58' E 023°24'0 0.0
2017-Nov-12 12:31N 37°58' E 023°24'0 0.0
2017-Nov-12 12:01N 37°58' E 023°24'0 0.0
2017-Nov-12 11:31N 37°58' E 023°24'0 0.0
2017-Nov-12 11:01N 37°58' E 023°24'0 0.0
2017-Nov-12 10:31N 37°58' E 023°24'0 0.0
2017-Nov-12 10:00N 37°58' E 023°24'0 0.0
2017-Nov-12 09:31N 37°58' E 023°24'0 0.0
2017-Nov-12 09:01N 37°58' E 023°24'0 0.0
2017-Nov-12 08:31N 37°58' E 023°24'0 0.0
2017-Nov-12 08:01N 37°58' E 023°24'0 0.0
2017-Nov-12 07:31N 37°58' E 023°24'0 0.0
2017-Nov-12 07:01N 37°58' E 023°24'1 1.2
2017-Nov-12 06:31N 37°58' E 023°24'0 0.1
2017-Nov-12 06:00N 37°57' E 023°24'1 1.4
2017-Nov-12 05:31N 37°58' E 023°25'4 8.2
2017-Nov-12 05:00N 38°01' E 023°29'4 8.7
2017-Nov-12 04:31N 37°58' E 023°33'4 7.5
2017-Nov-12 04:01N 37°56' E 023°37'0 0.0
2017-Nov-12 03:31N 37°56' E 023°37'0 0.0
2017-Nov-12 03:01N 37°56' E 023°37'0 0.0
2017-Nov-12 02:31N 37°56' E 023°37'0 0.0
2017-Nov-12 02:00N 37°56' E 023°37'0 0.0
2017-Nov-12 01:30N 37°56' E 023°37'0 0.0
2017-Nov-12 01:01N 37°56' E 023°37'0 0.0
2017-Nov-12 00:30N 37°56' E 023°37'0 0.0
2017-Nov-12 00:00N 37°56' E 023°37'0 0.0
2017-Nov-11 23:31N 37°56' E 023°37'0 0.0
2017-Nov-11 23:00N 37°56' E 023°37'0 0.0
2017-Nov-11 22:31N 37°56' E 023°37'0 0.0
2017-Nov-11 22:01N 37°56' E 023°37'0 0.0
2017-Nov-11 21:31N 37°56' E 023°37'0 0.0
2017-Nov-11 21:01N 37°56' E 023°37'0 0.0
2017-Nov-11 20:31N 37°56' E 023°37'0 0.0
2017-Nov-11 20:01N 37°56' E 023°37'0 0.0
2017-Nov-11 19:31N 37°56' E 023°37'0 0.0
2017-Nov-11 19:01N 37°56' E 023°37'0 0.0
2017-Nov-11 18:31N 37°56' E 023°37'0 0.0
2017-Nov-11 18:01N 37°56' E 023°37'0 0.0
2017-Nov-11 17:31N 37°56' E 023°37'0 0.0
2017-Nov-11 17:00N 37°56' E 023°37'0 0.0
2017-Nov-11 16:31N 37°56' E 023°37'0 0.0
2017-Nov-11 16:01N 37°56' E 023°37'0 0.0
2017-Nov-11 15:31N 37°56' E 023°37'0 0.0
2017-Nov-11 15:01N 37°56' E 023°37'0 0.0
2017-Nov-11 14:31N 37°56' E 023°37'0 0.0
2017-Nov-11 14:01N 37°56' E 023°37'0 0.0
2017-Nov-11 13:31N 37°56' E 023°37'0 0.0
2017-Nov-11 13:01N 37°56' E 023°37'0 0.0
2017-Nov-11 12:31N 37°56' E 023°37'0 0.0
2017-Nov-11 12:00N 37°56' E 023°37'0 0.0
2017-Nov-11 11:31N 37°56' E 023°37'0 0.0
2017-Nov-11 11:00N 37°56' E 023°37'0 0.0
2017-Nov-11 10:31N 37°56' E 023°37'0 0.0
2017-Nov-11 10:01N 37°56' E 023°37'0 0.0
2017-Nov-11 09:31N 37°56' E 023°37'0 0.0
2017-Nov-11 09:01N 37°56' E 023°37'0 0.0
2017-Nov-11 08:31N 37°56' E 023°37'0 0.0
2017-Nov-11 08:01N 37°56' E 023°37'0 0.0
2017-Nov-11 07:31N 37°56' E 023°37'0 0.0
2017-Nov-11 07:01N 37°56' E 023°37'0 0.0
2017-Nov-11 06:30N 37°56' E 023°37'0 0.0
2017-Nov-11 06:00N 37°56' E 023°37'0 0.0
2017-Nov-11 05:30N 37°56' E 023°37'0 0.0
2017-Nov-11 05:01N 37°56' E 023°37'0 0.0
2017-Nov-11 04:31N 37°56' E 023°37'0 0.0
2017-Nov-11 04:01N 37°56' E 023°37'0 0.0
2017-Nov-11 03:31N 37°56' E 023°37'0 0.0
2017-Nov-11 03:01N 37°56' E 023°37'0 0.0
2017-Nov-11 02:31N 37°56' E 023°37'0 0.0
2017-Nov-11 02:01N 37°56' E 023°37'0 0.0
2017-Nov-11 01:31N 37°56' E 023°37'0 0.0
2017-Nov-11 01:01N 37°56' E 023°37'0 0.0
2017-Nov-11 00:31N 37°56' E 023°37'0 0.0
2017-Nov-11 00:00N 37°56' E 023°37'0 0.0
2017-Nov-10 23:31N 37°56' E 023°37'2 3.8
2017-Nov-10 23:01N 37°57' E 023°35'0 0.6
2017-Nov-10 22:31N 37°57' E 023°35'0 0.9
2017-Nov-10 22:00N 37°57' E 023°35'0 0.9
2017-Nov-10 21:31N 37°57' E 023°35'0 0.9
2017-Nov-10 21:01N 37°57' E 023°35'2 4.0
2017-Nov-10 20:31N 37°56' E 023°37'0 0.0
2017-Nov-10 20:01N 37°56' E 023°37'0 0.0
2017-Nov-10 19:31N 37°56' E 023°37'0 0.0
2017-Nov-10 19:01N 37°56' E 023°37'0 0.0
2017-Nov-10 18:30N 37°56' E 023°37'0 0.6
2017-Nov-10 18:01N 37°56' E 023°37'4 8.7
2017-Nov-10 17:31N 37°59' E 023°33'3 4.1
2017-Nov-10 16:49N 38°02' E 023°34'0 0.1
2017-Nov-10 16:30N 38°02' E 023°34'0 0.1
2017-Nov-10 16:00N 38°02' E 023°34'0 0.1
2017-Nov-10 15:30N 38°02' E 023°34'2 4.0
2017-Nov-10 15:00N 37°60' E 023°33'3 5.1
2017-Nov-10 14:31N 37°58' E 023°34'0 0.0
2017-Nov-10 14:01N 37°58' E 023°34'0 0.0
2017-Nov-10 13:31N 37°58' E 023°34'0 0.0
2017-Nov-10 13:01N 37°58' E 023°34'0 0.0
2017-Nov-10 12:30N 37°58' E 023°34'0 0.0
2017-Nov-10 12:01N 37°58' E 023°34'0 0.0
2017-Nov-10 11:31N 37°58' E 023°34'1 1.2
2017-Nov-10 11:00N 37°58' E 023°34'0 0.0
2017-Nov-10 10:30N 37°58' E 023°34'0 0.3
2017-Nov-10 10:01N 37°57' E 023°34'2 4.1
2017-Nov-10 09:31N 37°57' E 023°36'0 0.0
2017-Nov-10 09:01N 37°57' E 023°36'0 0.0
2017-Nov-10 08:30N 37°57' E 023°36'0 0.0
2017-Nov-10 08:01N 37°57' E 023°36'0 0.0
2017-Nov-10 07:31N 37°57' E 023°36'1 1.4
2017-Nov-10 07:01N 37°57' E 023°35'1 1.7
2017-Nov-10 06:30N 37°56' E 023°36'0 0.8
2017-Nov-10 06:01N 37°56' E 023°36'2 3.1
2017-Nov-10 05:31N 37°57' E 023°35'1 2.3
2017-Nov-10 05:01N 37°56' E 023°35'2 4.3
2017-Nov-10 04:31N 37°56' E 023°37'0 0.0
2017-Nov-10 04:01N 37°56' E 023°37'0 0.0
2017-Nov-10 03:31N 37°56' E 023°37'0 0.0
2017-Nov-10 03:01N 37°56' E 023°37'0 0.0
2017-Nov-10 02:31N 37°56' E 023°37'0 0.0
2017-Nov-10 02:01N 37°56' E 023°37'0 0.0
2017-Nov-10 01:31N 37°56' E 023°37'0 0.0
2017-Nov-10 01:01N 37°56' E 023°37'0 0.0
2017-Nov-10 00:31N 37°56' E 023°37'0 0.0
2017-Nov-10 00:01N 37°56' E 023°37'0 0.0
2017-Nov-09 23:31N 37°56' E 023°37'0 0.0
2017-Nov-09 23:01N 37°56' E 023°37'0 0.0
2017-Nov-09 22:31N 37°56' E 023°37'0 0.0
2017-Nov-09 22:01N 37°56' E 023°37'0 0.0
2017-Nov-09 21:30N 37°56' E 023°37'0 0.0
2017-Nov-09 21:01N 37°56' E 023°37'0 0.0
2017-Nov-09 20:30N 37°56' E 023°37'0 0.0
2017-Nov-09 20:01N 37°56' E 023°37'0 0.0
2017-Nov-09 19:31N 37°56' E 023°37'0 0.0
2017-Nov-09 19:01N 37°56' E 023°37'0 0.0
2017-Nov-09 18:31N 37°56' E 023°37'0 0.0
2017-Nov-09 18:01N 37°56' E 023°37'0 0.0
2017-Nov-09 17:31N 37°56' E 023°37'0 0.0
2017-Nov-09 17:00N 37°56' E 023°37'0 0.0
2017-Nov-09 16:31N 37°56' E 023°37'0 0.0
2017-Nov-09 16:01N 37°56' E 023°37'0 0.0
2017-Nov-09 15:31N 37°56' E 023°37'0 0.0
2017-Nov-09 15:01N 37°56' E 023°37'0 0.0
2017-Nov-09 14:31N 37°56' E 023°37'0 0.0
2017-Nov-09 14:00N 37°56' E 023°37'0 0.0
2017-Nov-09 13:30N 37°56' E 023°37'0 0.0
2017-Nov-09 13:01N 37°56' E 023°37'0 0.0
2017-Nov-09 12:30N 37°56' E 023°37'0 0.0
2017-Nov-09 12:01N 37°56' E 023°37'0 0.0
2017-Nov-09 11:31N 37°56' E 023°37'0 0.0
2017-Nov-09 11:00N 37°56' E 023°37'2 3.1
2017-Nov-09 10:30N 37°58' E 023°37'0 0.0
2017-Nov-09 10:01N 37°58' E 023°37'0 0.0
2017-Nov-09 09:31N 37°58' E 023°37'0 0.0
2017-Nov-09 09:01N 37°58' E 023°37'0 0.0
2017-Nov-09 08:30N 37°58' E 023°37'0 0.0
2017-Nov-09 08:00N 37°58' E 023°37'0 0.0
2017-Nov-09 07:31N 37°58' E 023°37'1 1.8
2017-Nov-09 07:01N 37°57' E 023°36'0 0.2
2017-Nov-09 06:31N 37°57' E 023°36'0 0.2
2017-Nov-09 06:01N 37°57' E 023°36'0 0.0
2017-Nov-09 05:31N 37°57' E 023°36'0 0.0
2017-Nov-09 05:01N 37°57' E 023°36'0 0.0
2017-Nov-09 04:31N 37°57' E 023°36'0 0.0
2017-Nov-09 04:01N 37°57' E 023°36'0 0.0
2017-Nov-09 03:31N 37°57' E 023°36'0 0.0
2017-Nov-09 03:01N 37°57' E 023°36'0 0.0
2017-Nov-09 02:31N 37°57' E 023°36'0 0.0
2017-Nov-09 02:00N 37°57' E 023°36'0 0.0
2017-Nov-09 01:31N 37°57' E 023°36'3 6.3
2017-Nov-09 01:01N 37°59' E 023°33'4 8.6
2017-Nov-09 00:31N 38°00' E 023°28'4 7.4
2017-Nov-09 00:01N 37°58' E 023°24'1 2.1
2017-Nov-08 23:31N 37°58' E 023°23'1 2.4
2017-Nov-08 23:01N 37°58' E 023°24'1 1.9
2017-Nov-08 22:31N 37°58' E 023°25'4 8.0
2017-Nov-08 22:01N 38°01' E 023°30'4 8.4
2017-Nov-08 21:31N 37°57' E 023°33'2 4.4
2017-Nov-08 21:01N 37°57' E 023°36'0 0.0
2017-Nov-08 20:30N 37°57' E 023°36'0 0.0
2017-Nov-08 20:01N 37°57' E 023°36'0 0.0
2017-Nov-08 19:31N 37°57' E 023°36'0 0.0
2017-Nov-08 19:01N 37°57' E 023°36'1 1.2
2017-Nov-08 18:30N 37°57' E 023°35'0 0.0
2017-Nov-08 18:01N 37°57' E 023°35'0 0.0
2017-Nov-08 17:31N 37°57' E 023°35'0 0.0
2017-Nov-08 17:01N 37°57' E 023°35'0 0.0
2017-Nov-08 16:31N 37°57' E 023°35'0 0.0
2017-Nov-08 16:01N 37°57' E 023°35'0 0.0
2017-Nov-08 15:31N 37°57' E 023°35'0 0.0
2017-Nov-08 15:01N 37°57' E 023°35'0 0.0
2017-Nov-08 14:30N 37°57' E 023°35'0 0.0
2017-Nov-08 14:01N 37°57' E 023°35'0 0.0
2017-Nov-08 13:31N 37°57' E 023°35'1 1.4
2017-Nov-08 13:01N 37°58' E 023°34'1 2.5
2017-Nov-08 12:31N 37°57' E 023°36'0 0.1
2017-Nov-08 12:00N 37°57' E 023°36'0 0.8
2017-Nov-08 11:31N 37°57' E 023°36'0 0.0
2017-Nov-08 11:01N 37°57' E 023°36'1 1.9
2017-Nov-08 10:31N 37°57' E 023°35'2 3.6
2017-Nov-08 10:00N 37°55' E 023°35'2 3.8
2017-Nov-08 09:31N 37°56' E 023°37'0 0.5
2017-Nov-08 09:01N 37°56' E 023°37'0 0.5
2017-Nov-08 08:31N 37°56' E 023°37'0 0.5
2017-Nov-08 08:00N 37°56' E 023°37'0 0.0
2017-Nov-08 07:31N 37°56' E 023°37'0 0.0
2017-Nov-08 07:01N 37°56' E 023°37'0 0.8
2017-Nov-08 06:31N 37°56' E 023°38'1 2.6
2017-Nov-08 06:00N 37°57' E 023°36'0 0.3
2017-Nov-08 05:31N 37°57' E 023°36'1 2.2
2017-Nov-08 05:01N 37°56' E 023°36'1 1.7
2017-Nov-08 04:31N 37°56' E 023°37'0 0.0
2017-Nov-08 04:01N 37°56' E 023°37'0 0.0
2017-Nov-08 03:31N 37°56' E 023°37'0 0.0
2017-Nov-08 03:01N 37°56' E 023°37'0 0.0
2017-Nov-08 02:30N 37°56' E 023°37'0 0.0
2017-Nov-08 02:01N 37°56' E 023°37'0 0.0
2017-Nov-08 01:31N 37°56' E 023°37'0 0.0
2017-Nov-08 01:01N 37°56' E 023°37'0 0.0
2017-Nov-08 00:31N 37°56' E 023°37'0 0.0
2017-Nov-08 00:01N 37°56' E 023°37'0 0.0
2017-Nov-07 23:31N 37°56' E 023°37'0 0.0
2017-Nov-07 23:01N 37°56' E 023°37'0 0.0
2017-Nov-07 22:31N 37°56' E 023°37'0 0.0
2017-Nov-07 22:01N 37°56' E 023°37'0 0.0
2017-Nov-07 21:31N 37°56' E 023°37'0 0.0
2017-Nov-07 21:00N 37°56' E 023°37'0 0.0
2017-Nov-07 20:31N 37°56' E 023°37'0 0.0
2017-Nov-07 20:01N 37°56' E 023°37'0 0.0
2017-Nov-07 19:31N 37°56' E 023°37'0 0.0
2017-Nov-07 19:00N 37°56' E 023°37'0 0.0
2017-Nov-07 18:30N 37°56' E 023°37'0 0.0
2017-Nov-07 18:00N 37°56' E 023°37'0 0.0
2017-Nov-07 17:30N 37°56' E 023°37'0 0.0
2017-Nov-07 17:01N 37°56' E 023°37'0 0.0
2017-Nov-07 16:30N 37°56' E 023°37'0 0.0
2017-Nov-07 16:01N 37°56' E 023°37'0 0.0
2017-Nov-07 15:31N 37°56' E 023°37'0 0.0
2017-Nov-07 15:01N 37°56' E 023°37'0 0.0
2017-Nov-07 14:30N 37°56' E 023°37'0 0.0
2017-Nov-07 14:00N 37°56' E 023°37'0 0.0
2017-Nov-07 13:31N 37°56' E 023°37'0 0.0
2017-Nov-07 13:00N 37°56' E 023°37'0 0.0
2017-Nov-07 12:31N 37°56' E 023°37'0 0.0
2017-Nov-07 12:01N 37°56' E 023°37'0 0.0
2017-Nov-07 11:31N 37°56' E 023°37'  
Track history (hours):
 
Tides and Currents Weather Stations Pressure Air Temp Water Temp Dewpoint Dewpoint Depression Visibility Wind Speed Wind Dir Waves Ship Positions

Ifestos 3

Last reported at 2017-Nov-17 11:08 UTC. Time now 2017-Nov-17 19:46 UTC.
Position N 37°57' E 023°37'.

Length 30 m; draft 2.9 m.

Type: Tug. MMSI: 240612000.

Date/timePositionNaut miles runAvg speedWind from/ knotsBaromVisibWave heightAir tempDewpointWater temp
2017-Nov-17 11:08N 37°57' E 023°37'0 0.0
2017-Nov-17 11:00N 37°57' E 023°37'0 0.0
2017-Nov-17 10:31N 37°57' E 023°37'0 0.0
2017-Nov-17 10:00N 37°57' E 023°37'0 0.0
2017-Nov-17 09:31N 37°57' E 023°37'0 0.0
2017-Nov-17 09:00N 37°57' E 023°37'1 1.6
2017-Nov-17 08:31N 37°57' E 023°36'0 0.3
2017-Nov-17 08:01N 37°57' E 023°36'0 0.0
2017-Nov-17 07:30N 37°57' E 023°36'1 1.0
2017-Nov-17 07:00N 37°57' E 023°35'0 0.8
2017-Nov-17 06:31N 37°57' E 023°35'0 0.2
2017-Nov-17 06:01N 37°57' E 023°35'0 0.2
2017-Nov-17 05:31N 37°57' E 023°35'1 2.1
2017-Nov-17 05:01N 37°57' E 023°37'0 0.0
2017-Nov-17 04:31N 37°57' E 023°37'0 0.0
2017-Nov-17 04:00N 37°57' E 023°37'0 0.0
2017-Nov-17 03:31N 37°57' E 023°37'0 0.0
2017-Nov-17 03:00N 37°57' E 023°37'0 0.0
2017-Nov-17 02:31N 37°57' E 023°37'0 0.0
2017-Nov-17 02:01N 37°57' E 023°37'0 0.0
2017-Nov-17 01:31N 37°57' E 023°37'0 0.0
2017-Nov-17 01:01N 37°57' E 023°37'0 0.0
2017-Nov-17 00:31N 37°57' E 023°37'0 0.0
2017-Nov-17 00:01N 37°57' E 023°37'0 0.0
2017-Nov-16 23:30N 37°57' E 023°37'0 0.0
2017-Nov-16 23:01N 37°57' E 023°37'0 0.0
2017-Nov-16 22:31N 37°57' E 023°37'0 0.0
2017-Nov-16 22:01N 37°57' E 023°37'0 0.0
2017-Nov-16 21:30N 37°57' E 023°37'0 0.0
2017-Nov-16 21:00N 37°57' E 023°37'0 0.0
2017-Nov-16 20:31N 37°57' E 023°37'0 0.0
2017-Nov-16 20:01N 37°57' E 023°37'0 0.0
2017-Nov-16 19:31N 37°57' E 023°37'0 0.0
2017-Nov-16 19:01N 37°57' E 023°37'0 0.0
2017-Nov-16 18:30N 37°57' E 023°37'0 0.0
2017-Nov-16 18:01N 37°57' E 023°37'0 0.0
2017-Nov-16 17:31N 37°57' E 023°37'0 0.0
2017-Nov-16 17:00N 37°57' E 023°37'0 0.0
2017-Nov-16 16:31N 37°57' E 023°37'0 0.0
2017-Nov-16 16:00N 37°57' E 023°37'0 0.0
2017-Nov-16 15:31N 37°57' E 023°37'0 0.0
2017-Nov-16 15:01N 37°57' E 023°37'0 0.0
2017-Nov-16 14:31N 37°57' E 023°37'0 0.0
2017-Nov-16 14:01N 37°57' E 023°37'0 0.7
2017-Nov-16 13:31N 37°57' E 023°36'0 0.4
2017-Nov-16 13:01N 37°58' E 023°36'0 0.5
2017-Nov-16 12:31N 37°57' E 023°36'0 0.1
2017-Nov-16 12:01N 37°57' E 023°37'0 0.0
2017-Nov-16 11:31N 37°57' E 023°37'0 0.0
2017-Nov-16 11:00N 37°57' E 023°37'0 0.0
2017-Nov-16 10:30N 37°57' E 023°37'0 0.0
2017-Nov-16 10:00N 37°57' E 023°37'0 0.0
2017-Nov-16 09:31N 37°57' E 023°37'3 6.0
2017-Nov-16 09:01N 37°58' E 023°33'1 1.1
2017-Nov-16 08:31N 37°58' E 023°33'3 5.4
2017-Nov-16 08:00N 37°57' E 023°37'0 0.1
2017-Nov-16 07:31N 37°57' E 023°37'0 0.7
2017-Nov-16 07:01N 37°57' E 023°36'0 0.1
2017-Nov-16 06:31N 37°57' E 023°36'0 0.7
2017-Nov-16 06:00N 37°57' E 023°37'0 0.0
2017-Nov-16 05:30N 37°57' E 023°37'0 0.0
2017-Nov-16 05:01N 37°57' E 023°37'0 0.0
2017-Nov-16 04:31N 37°57' E 023°37'0 0.0
2017-Nov-16 04:01N 37°57' E 023°37'0 0.0
2017-Nov-16 03:31N 37°57' E 023°37'0 0.0
2017-Nov-16 03:01N 37°57' E 023°37'0 0.0
2017-Nov-16 02:31N 37°57' E 023°37'0 0.0
2017-Nov-16 02:00N 37°57' E 023°37'0 0.0
2017-Nov-16 01:31N 37°57' E 023°37'0 0.0
2017-Nov-16 01:01N 37°57' E 023°37'0 0.0
2017-Nov-16 00:31N 37°57' E 023°37'0 0.0
2017-Nov-16 00:01N 37°57' E 023°37'0 0.0
2017-Nov-15 23:31N 37°57' E 023°37'0 0.0
2017-Nov-15 23:01N 37°57' E 023°37'2 3.2
2017-Nov-15 22:31N 37°57' E 023°35'4 8.7
2017-Nov-15 22:00N 38°01' E 023°32'1 2.9
2017-Nov-15 21:30N 38°02' E 023°30'0 0.6
2017-Nov-15 21:01N 38°02' E 023°31'0 0.0
2017-Nov-15 20:30N 38°02' E 023°31'0 0.0
2017-Nov-15 20:00N 38°02' E 023°31'0 0.0
2017-Nov-15 19:30N 38°02' E 023°31'0 0.0
2017-Nov-15 19:00N 38°02' E 023°31'0 0.0
2017-Nov-15 18:30N 38°02' E 023°31'0 0.0
2017-Nov-15 18:00N 38°02' E 023°31'0 0.0
2017-Nov-15 17:03N 38°02' E 023°31'0 0.0
2017-Nov-15 17:00N 38°02' E 023°31'0 0.0
2017-Nov-15 16:30N 38°02' E 023°31'0 0.0
2017-Nov-15 16:01N 38°02' E 023°31'0 0.0
2017-Nov-15 14:30N 38°02' E 023°31'0 0.0
2017-Nov-15 14:00N 38°02' E 023°31'0 0.0
2017-Nov-15 13:30N 38°02' E 023°31'0 0.0
2017-Nov-15 13:01N 38°02' E 023°31'0 0.0
2017-Nov-15 12:30N 38°02' E 023°31'0 0.0
2017-Nov-15 12:00N 38°02' E 023°31'0 0.0
2017-Nov-15 11:30N 38°02' E 023°31'0 0.0
2017-Nov-15 11:01N 38°02' E 023°31'0 0.0
2017-Nov-15 10:29N 38°02' E 023°31'0 0.0
2017-Nov-15 09:57N 38°02' E 023°31'0 0.0
2017-Nov-15 09:29N 38°02' E 023°31'0 0.0
2017-Nov-15 09:00N 38°02' E 023°31'0 0.0
2017-Nov-15 08:30N 38°02' E 023°31'0 0.0
2017-Nov-15 08:01N 38°02' E 023°31'0 0.0
2017-Nov-15 07:30N 38°02' E 023°31'0 0.0
2017-Nov-15 07:00N 38°02' E 023°31'0 0.0
2017-Nov-15 06:30N 38°02' E 023°31'0 0.0
2017-Nov-15 06:00N 38°02' E 023°31'0 0.0
2017-Nov-15 05:30N 38°02' E 023°31'0 0.0
2017-Nov-15 05:00N 38°02' E 023°31'0 0.0
2017-Nov-15 04:30N 38°02' E 023°31'0 0.0
2017-Nov-15 04:00N 38°02' E 023°31'0 0.0
2017-Nov-15 03:30N 38°02' E 023°31'0 0.0
2017-Nov-15 02:59N 38°02' E 023°31'0 0.0
2017-Nov-15 02:30N 38°02' E 023°31'0 0.0
2017-Nov-15 02:00N 38°02' E 023°31'0 0.0
2017-Nov-15 01:30N 38°02' E 023°31'0 0.0
2017-Nov-15 01:00N 38°02' E 023°31'0 0.0
2017-Nov-15 00:30N 38°02' E 023°31'0 0.0
2017-Nov-15 00:00N 38°02' E 023°31'0 0.0
2017-Nov-14 23:30N 38°02' E 023°31'0 0.0
2017-Nov-14 22:58N 38°02' E 023°31'0 0.0
2017-Nov-14 22:30N 38°02' E 023°31'0 0.0
2017-Nov-14 22:00N 38°02' E 023°31'0 0.0
2017-Nov-14 21:30N 38°02' E 023°31'1 2.4
2017-Nov-14 21:00N 38°02' E 023°32'0 0.0
2017-Nov-14 20:30N 38°02' E 023°32'0 0.0
2017-Nov-14 20:00N 38°02' E 023°32'0 0.0
2017-Nov-14 19:30N 38°02' E 023°32'0 0.0
2017-Nov-14 19:00N 38°02' E 023°32'0 0.0
2017-Nov-14 18:30N 38°02' E 023°32'1 1.1
2017-Nov-14 18:00N 38°02' E 023°32'1 2.0
2017-Nov-14 17:31N 38°02' E 023°30'2 3.2
2017-Nov-14 17:01N 38°01' E 023°32'2 3.6
2017-Nov-14 16:30N 37°59' E 023°33'3 6.5
2017-Nov-14 16:00N 37°57' E 023°36'3 5.2
2017-Nov-14 15:31N 37°58' E 023°33'5 9.1
2017-Nov-14 15:01N 38°02' E 023°36'0 0.5
2017-Nov-14 14:30N 38°01' E 023°35'0 0.0
2017-Nov-14 14:00N 38°01' E 023°35'0 0.0
2017-Nov-14 13:30N 38°01' E 023°35'0 0.0
2017-Nov-14 13:01N 38°01' E 023°35'0 0.0
2017-Nov-14 12:30N 38°01' E 023°35'0 0.0
2017-Nov-14 12:00N 38°01' E 023°35'0 0.0
2017-Nov-14 11:30N 38°01' E 023°35'0 0.0
2017-Nov-14 11:01N 38°01' E 023°35'0 0.0
2017-Nov-14 10:30N 38°01' E 023°35'1 1.0
2017-Nov-14 09:59N 38°02' E 023°35'2 4.3
2017-Nov-14 09:30N 38°02' E 023°32'0 0.0
2017-Nov-14 09:00N 38°02' E 023°32'0 0.0
2017-Nov-14 08:30N 38°02' E 023°32'0 0.3
2017-Nov-14 08:01N 38°02' E 023°32'4 7.6
2017-Nov-14 07:31N 37°58' E 023°33'3 5.6
2017-Nov-14 07:01N 37°58' E 023°36'1 2.9
2017-Nov-14 06:31N 37°56' E 023°36'1 1.6
2017-Nov-14 06:01N 37°56' E 023°37'0 0.7
2017-Nov-14 05:31N 37°56' E 023°37'0 0.1
2017-Nov-14 05:01N 37°56' E 023°37'0 0.0
2017-Nov-14 04:31N 37°56' E 023°37'0 0.0
2017-Nov-14 04:01N 37°56' E 023°37'0 0.0
2017-Nov-14 03:30N 37°56' E 023°37'0 0.0
2017-Nov-14 03:01N 37°56' E 023°37'0 0.0
2017-Nov-14 02:30N 37°56' E 023°37'0 0.0
2017-Nov-14 02:01N 37°56' E 023°37'0 0.0
2017-Nov-14 01:31N 37°56' E 023°37'0 0.0
2017-Nov-14 01:01N 37°56' E 023°37'0 0.0
2017-Nov-14 00:31N 37°56' E 023°37'0 0.0
2017-Nov-14 00:01N 37°56' E 023°37'0 0.0
2017-Nov-13 23:31N 37°56' E 023°37'0 0.0
2017-Nov-13 23:00N 37°56' E 023°37'0 0.0
2017-Nov-13 22:30N 37°56' E 023°37'0 0.0
2017-Nov-13 22:01N 37°56' E 023°37'11 0.5
2017-Nov-13 02:01N 37°58' E 023°24'0 0.0
2017-Nov-13 01:31N 37°58' E 023°24'0 0.0
2017-Nov-13 01:01N 37°58' E 023°24'0 0.0
2017-Nov-13 00:31N 37°58' E 023°24'0 0.0
2017-Nov-13 00:00N 37°58' E 023°24'0 0.0
2017-Nov-12 23:31N 37°58' E 023°24'0 0.0
2017-Nov-12 23:01N 37°58' E 023°24'0 0.0
2017-Nov-12 22:31N 37°58' E 023°24'0 0.0
2017-Nov-12 22:00N 37°58' E 023°24'0 0.0
2017-Nov-12 21:31N 37°58' E 023°24'0 0.0
2017-Nov-12 21:01N 37°58' E 023°24'0 0.0
2017-Nov-12 20:31N 37°58' E 023°24'0 0.0
2017-Nov-12 20:01N 37°58' E 023°24'0 0.0
2017-Nov-12 19:31N 37°58' E 023°24'0 0.0
2017-Nov-12 19:01N 37°58' E 023°24'0 0.0
2017-Nov-12 18:30N 37°58' E 023°24'0 0.0
2017-Nov-12 18:00N 37°58' E 023°24'0 0.0
2017-Nov-12 17:30N 37°58' E 023°24'0 0.0
2017-Nov-12 17:01N 37°58' E 023°24'0 0.0
2017-Nov-12 16:31N 37°58' E 023°24'0 0.0
2017-Nov-12 16:01N 37°58' E 023°24'0 0.0
2017-Nov-12 15:30N 37°58' E 023°24'0 0.0
2017-Nov-12 15:01N 37°58' E 023°24'0 0.0
2017-Nov-12 14:31N 37°58' E 023°24'0 0.0
2017-Nov-12 14:01N 37°58' E 023°24'0 0.0
2017-Nov-12 13:31N 37°58' E 023°24'0 0.0
2017-Nov-12 13:00N 37°58' E 023°24'0 0.0
2017-Nov-12 12:31N 37°58' E 023°24'0 0.0
2017-Nov-12 12:01N 37°58' E 023°24'0 0.0
2017-Nov-12 11:31N 37°58' E 023°24'0 0.0
2017-Nov-12 11:01N 37°58' E 023°24'0 0.0
2017-Nov-12 10:31N 37°58' E 023°24'0 0.0
2017-Nov-12 10:00N 37°58' E 023°24'0 0.0
2017-Nov-12 09:31N 37°58' E 023°24'0 0.0
2017-Nov-12 09:01N 37°58' E 023°24'0 0.0
2017-Nov-12 08:31N 37°58' E 023°24'0 0.0
2017-Nov-12 08:01N 37°58' E 023°24'0 0.0
2017-Nov-12 07:31N 37°58' E 023°24'0 0.0
2017-Nov-12 07:01N 37°58' E 023°24'1 1.2
2017-Nov-12 06:31N 37°58' E 023°24'0 0.1
2017-Nov-12 06:00N 37°57' E 023°24'1 1.4
2017-Nov-12 05:31N 37°58' E 023°25'4 8.2
2017-Nov-12 05:00N 38°01' E 023°29'4 8.7
2017-Nov-12 04:31N 37°58' E 023°33'4 7.5
2017-Nov-12 04:01N 37°56' E 023°37'0 0.0
2017-Nov-12 03:31N 37°56' E 023°37'0 0.0
2017-Nov-12 03:01N 37°56' E 023°37'0 0.0
2017-Nov-12 02:31N 37°56' E 023°37'0 0.0
2017-Nov-12 02:00N 37°56' E 023°37'0 0.0
2017-Nov-12 01:30N 37°56' E 023°37'0 0.0
2017-Nov-12 01:01N 37°56' E 023°37'0 0.0
2017-Nov-12 00:30N 37°56' E 023°37'0 0.0
2017-Nov-12 00:00N 37°56' E 023°37'0 0.0
2017-Nov-11 23:31N 37°56' E 023°37'0 0.0
2017-Nov-11 23:00N 37°56' E 023°37'0 0.0
2017-Nov-11 22:31N 37°56' E 023°37'0 0.0
2017-Nov-11 22:01N 37°56' E 023°37'0 0.0
2017-Nov-11 21:31N 37°56' E 023°37'0 0.0
2017-Nov-11 21:01N 37°56' E 023°37'0 0.0
2017-Nov-11 20:31N 37°56' E 023°37'0 0.0
2017-Nov-11 20:01N 37°56' E 023°37'0 0.0
2017-Nov-11 19:31N 37°56' E 023°37'0 0.0
2017-Nov-11 19:01N 37°56' E 023°37'0 0.0
2017-Nov-11 18:31N 37°56' E 023°37'0 0.0
2017-Nov-11 18:01N 37°56' E 023°37'0 0.0
2017-Nov-11 17:31N 37°56' E 023°37'0 0.0
2017-Nov-11 17:00N 37°56' E 023°37'0 0.0
2017-Nov-11 16:31N 37°56' E 023°37'0 0.0
2017-Nov-11 16:01N 37°56' E 023°37'0 0.0
2017-Nov-11 15:31N 37°56' E 023°37'0 0.0
2017-Nov-11 15:01N 37°56' E 023°37'0 0.0
2017-Nov-11 14:31N 37°56' E 023°37'0 0.0
2017-Nov-11 14:01N 37°56' E 023°37'0 0.0
2017-Nov-11 13:31N 37°56' E 023°37'0 0.0
2017-Nov-11 13:01N 37°56' E 023°37'0 0.0
2017-Nov-11 12:31N 37°56' E 023°37'0 0.0
2017-Nov-11 12:00N 37°56' E 023°37'0 0.0
2017-Nov-11 11:31N 37°56' E 023°37'0 0.0
2017-Nov-11 11:00N 37°56' E 023°37'0 0.0
2017-Nov-11 10:31N 37°56' E 023°37'0 0.0
2017-Nov-11 10:01N 37°56' E 023°37'0 0.0
2017-Nov-11 09:31N 37°56' E 023°37'0 0.0
2017-Nov-11 09:01N 37°56' E 023°37'0 0.0
2017-Nov-11 08:31N 37°56' E 023°37'0 0.0
2017-Nov-11 08:01N 37°56' E 023°37'0 0.0
2017-Nov-11 07:31N 37°56' E 023°37'0 0.0
2017-Nov-11 07:01N 37°56' E 023°37'0 0.0
2017-Nov-11 06:30N 37°56' E 023°37'0 0.0
2017-Nov-11 06:00N 37°56' E 023°37'0 0.0
2017-Nov-11 05:30N 37°56' E 023°37'0 0.0
2017-Nov-11 05:01N 37°56' E 023°37'0 0.0
2017-Nov-11 04:31N 37°56' E 023°37'0 0.0
2017-Nov-11 04:01N 37°56' E 023°37'0 0.0
2017-Nov-11 03:31N 37°56' E 023°37'0 0.0
2017-Nov-11 03:01N 37°56' E 023°37'0 0.0
2017-Nov-11 02:31N 37°56' E 023°37'0 0.0
2017-Nov-11 02:01N 37°56' E 023°37'0 0.0
2017-Nov-11 01:31N 37°56' E 023°37'0 0.0
2017-Nov-11 01:01N 37°56' E 023°37'0 0.0
2017-Nov-11 00:31N 37°56' E 023°37'0 0.0
2017-Nov-11 00:00N 37°56' E 023°37'0 0.0
2017-Nov-10 23:31N 37°56' E 023°37'2 3.8
2017-Nov-10 23:01N 37°57' E 023°35'0 0.6
2017-Nov-10 22:31N 37°57' E 023°35'0 0.9
2017-Nov-10 22:00N 37°57' E 023°35'0 0.9
2017-Nov-10 21:31N 37°57' E 023°35'0 0.9
2017-Nov-10 21:01N 37°57' E 023°35'2 4.0
2017-Nov-10 20:31N 37°56' E 023°37'0 0.0
2017-Nov-10 20:01N 37°56' E 023°37'0 0.0
2017-Nov-10 19:31N 37°56' E 023°37'0 0.0
2017-Nov-10 19:01N 37°56' E 023°37'0 0.0
2017-Nov-10 18:30N 37°56' E 023°37'0 0.6
2017-Nov-10 18:01N 37°56' E 023°37'4 8.7
2017-Nov-10 17:31N 37°59' E 023°33'3 4.1
2017-Nov-10 16:49N 38°02' E 023°34'0 0.1
2017-Nov-10 16:30N 38°02' E 023°34'0 0.1
2017-Nov-10 16:00N 38°02' E 023°34'0 0.1
2017-Nov-10 15:30N 38°02' E 023°34'2 4.0
2017-Nov-10 15:00N 37°60' E 023°33'3 5.1
2017-Nov-10 14:31N 37°58' E 023°34'0 0.0
2017-Nov-10 14:01N 37°58' E 023°34'0 0.0
2017-Nov-10 13:31N 37°58' E 023°34'0 0.0
2017-Nov-10 13:01N 37°58' E 023°34'0 0.0
2017-Nov-10 12:30N 37°58' E 023°34'0 0.0
2017-Nov-10 12:01N 37°58' E 023°34'0 0.0
2017-Nov-10 11:31N 37°58' E 023°34'1 1.2
2017-Nov-10 11:00N 37°58' E 023°34'0 0.0
2017-Nov-10 10:30N 37°58' E 023°34'0 0.3
2017-Nov-10 10:01N 37°57' E 023°34'2 4.1
2017-Nov-10 09:31N 37°57' E 023°36'0 0.0
2017-Nov-10 09:01N 37°57' E 023°36'0 0.0
2017-Nov-10 08:30N 37°57' E 023°36'0 0.0
2017-Nov-10 08:01N 37°57' E 023°36'0 0.0
2017-Nov-10 07:31N 37°57' E 023°36'1 1.4
2017-Nov-10 07:01N 37°57' E 023°35'1 1.7
2017-Nov-10 06:30N 37°56' E 023°36'0 0.8
2017-Nov-10 06:01N 37°56' E 023°36'2 3.1
2017-Nov-10 05:31N 37°57' E 023°35'1 2.3
2017-Nov-10 05:01N 37°56' E 023°35'2 4.3
2017-Nov-10 04:31N 37°56' E 023°37'0 0.0
2017-Nov-10 04:01N 37°56' E 023°37'0 0.0
2017-Nov-10 03:31N 37°56' E 023°37'0 0.0
2017-Nov-10 03:01N 37°56' E 023°37'0 0.0
2017-Nov-10 02:31N 37°56' E 023°37'0 0.0
2017-Nov-10 02:01N 37°56' E 023°37'0 0.0
2017-Nov-10 01:31N 37°56' E 023°37'0 0.0
2017-Nov-10 01:01N 37°56' E 023°37'0 0.0
2017-Nov-10 00:31N 37°56' E 023°37'0 0.0
2017-Nov-10 00:01N 37°56' E 023°37'0 0.0
2017-Nov-09 23:31N 37°56' E 023°37'0 0.0
2017-Nov-09 23:01N 37°56' E 023°37'0 0.0
2017-Nov-09 22:31N 37°56' E 023°37'0 0.0
2017-Nov-09 22:01N 37°56' E 023°37'0 0.0
2017-Nov-09 21:30N 37°56' E 023°37'0 0.0
2017-Nov-09 21:01N 37°56' E 023°37'0 0.0
2017-Nov-09 20:30N 37°56' E 023°37'0 0.0
2017-Nov-09 20:01N 37°56' E 023°37'0 0.0
2017-Nov-09 19:31N 37°56' E 023°37'0 0.0
2017-Nov-09 19:01N 37°56' E 023°37'0 0.0
2017-Nov-09 18:31N 37°56' E 023°37'0 0.0
2017-Nov-09 18:01N 37°56' E 023°37'0 0.0
2017-Nov-09 17:31N 37°56' E 023°37'0 0.0
2017-Nov-09 17:00N 37°56' E 023°37'0 0.0
2017-Nov-09 16:31N 37°56' E 023°37'0 0.0
2017-Nov-09 16:01N 37°56' E 023°37'0 0.0
2017-Nov-09 15:31N 37°56' E 023°37'0 0.0
2017-Nov-09 15:01N 37°56' E 023°37'0 0.0
2017-Nov-09 14:31N 37°56' E 023°37'0 0.0
2017-Nov-09 14:00N 37°56' E 023°37'0 0.0
2017-Nov-09 13:30N 37°56' E 023°37'0 0.0
2017-Nov-09 13:01N 37°56' E 023°37'0 0.0
2017-Nov-09 12:30N 37°56' E 023°37'0 0.0
2017-Nov-09 12:01N 37°56' E 023°37'0 0.0
2017-Nov-09 11:31N 37°56' E 023°37'0 0.0
2017-Nov-09 11:00N 37°56' E 023°37'2 3.1
2017-Nov-09 10:30N 37°58' E 023°37'0 0.0
2017-Nov-09 10:01N 37°58' E 023°37'0 0.0
2017-Nov-09 09:31N 37°58' E 023°37'0 0.0
2017-Nov-09 09:01N 37°58' E 023°37'0 0.0
2017-Nov-09 08:30N 37°58' E 023°37'0 0.0
2017-Nov-09 08:00N 37°58' E 023°37'0 0.0
2017-Nov-09 07:31N 37°58' E 023°37'1 1.8
2017-Nov-09 07:01N 37°57' E 023°36'0 0.2
2017-Nov-09 06:31N 37°57' E 023°36'0 0.2
2017-Nov-09 06:01N 37°57' E 023°36'0 0.0
2017-Nov-09 05:31N 37°57' E 023°36'0 0.0
2017-Nov-09 05:01N 37°57' E 023°36'0 0.0
2017-Nov-09 04:31N 37°57' E 023°36'0 0.0
2017-Nov-09 04:01N 37°57' E 023°36'0 0.0
2017-Nov-09 03:31N 37°57' E 023°36'0 0.0
2017-Nov-09 03:01N 37°57' E 023°36'0 0.0
2017-Nov-09 02:31N 37°57' E 023°36'0 0.0
2017-Nov-09 02:00N 37°57' E 023°36'0 0.0
2017-Nov-09 01:31N 37°57' E 023°36'3 6.3
2017-Nov-09 01:01N 37°59' E 023°33'4 8.6
2017-Nov-09 00:31N 38°00' E 023°28'4 7.4
2017-Nov-09 00:01N 37°58' E 023°24'1 2.1
2017-Nov-08 23:31N 37°58' E 023°23'1 2.4
2017-Nov-08 23:01N 37°58' E 023°24'1 1.9
2017-Nov-08 22:31N 37°58' E 023°25'4 8.0
2017-Nov-08 22:01N 38°01' E 023°30'4 8.4
2017-Nov-08 21:31N 37°57' E 023°33'2 4.4
2017-Nov-08 21:01N 37°57' E 023°36'0 0.0
2017-Nov-08 20:30N 37°57' E 023°36'0 0.0
2017-Nov-08 20:01N 37°57' E 023°36'0 0.0
2017-Nov-08 19:31N 37°57' E 023°36'0 0.0
2017-Nov-08 19:01N 37°57' E 023°36'1 1.2
2017-Nov-08 18:30N 37°57' E 023°35'0 0.0
2017-Nov-08 18:01N 37°57' E 023°35'0 0.0
2017-Nov-08 17:31N 37°57' E 023°35'0 0.0
2017-Nov-08 17:01N 37°57' E 023°35'0 0.0
2017-Nov-08 16:31N 37°57' E 023°35'0 0.0
2017-Nov-08 16:01N 37°57' E 023°35'0 0.0
2017-Nov-08 15:31N 37°57' E 023°35'0 0.0
2017-Nov-08 15:01N 37°57' E 023°35'0 0.0
2017-Nov-08 14:30N 37°57' E 023°35'0 0.0
2017-Nov-08 14:01N 37°57' E 023°35'0 0.0
2017-Nov-08 13:31N 37°57' E 023°35'1 1.4
2017-Nov-08 13:01N 37°58' E 023°34'1 2.5
2017-Nov-08 12:31N 37°57' E 023°36'0 0.1
2017-Nov-08 12:00N 37°57' E 023°36'0 0.8
2017-Nov-08 11:31N 37°57' E 023°36'0 0.0
2017-Nov-08 11:01N 37°57' E 023°36'1 1.9
2017-Nov-08 10:31N 37°57' E 023°35'2 3.6
2017-Nov-08 10:00N 37°55' E 023°35'2 3.8
2017-Nov-08 09:31N 37°56' E 023°37'0 0.5
2017-Nov-08 09:01N 37°56' E 023°37'0 0.5
2017-Nov-08 08:31N 37°56' E 023°37'0 0.5
2017-Nov-08 08:00N 37°56' E 023°37'0 0.0
2017-Nov-08 07:31N 37°56' E 023°37'0 0.0
2017-Nov-08 07:01N 37°56' E 023°37'0 0.8
2017-Nov-08 06:31N 37°56' E 023°38'1 2.6
2017-Nov-08 06:00N 37°57' E 023°36'0 0.3
2017-Nov-08 05:31N 37°57' E 023°36'1 2.2
2017-Nov-08 05:01N 37°56' E 023°36'1 1.7
2017-Nov-08 04:31N 37°56' E 023°37'0 0.0
2017-Nov-08 04:01N 37°56' E 023°37'0 0.0
2017-Nov-08 03:31N 37°56' E 023°37'0 0.0
2017-Nov-08 03:01N 37°56' E 023°37'0 0.0
2017-Nov-08 02:30N 37°56' E 023°37'0 0.0
2017-Nov-08 02:01N 37°56' E 023°37'0 0.0
2017-Nov-08 01:31N 37°56' E 023°37'0 0.0
2017-Nov-08 01:01N 37°56' E 023°37'0 0.0
2017-Nov-08 00:31N 37°56' E 023°37'0 0.0
2017-Nov-08 00:01N 37°56' E 023°37'0 0.0
2017-Nov-07 23:31N 37°56' E 023°37'0 0.0
2017-Nov-07 23:01N 37°56' E 023°37'0 0.0
2017-Nov-07 22:31N 37°56' E 023°37'0 0.0
2017-Nov-07 22:01N 37°56' E 023°37'0 0.0
2017-Nov-07 21:31N 37°56' E 023°37'0 0.0
2017-Nov-07 21:00N 37°56' E 023°37'0 0.0
2017-Nov-07 20:31N 37°56' E 023°37'0 0.0
2017-Nov-07 20:01N 37°56' E 023°37'0 0.0
2017-Nov-07 19:31N 37°56' E 023°37'0 0.0
2017-Nov-07 19:00N 37°56' E 023°37'0 0.0
2017-Nov-07 18:30N 37°56' E 023°37'0 0.0
2017-Nov-07 18:00N 37°56' E 023°37'0 0.0
2017-Nov-07 17:30N 37°56' E 023°37'0 0.0
2017-Nov-07 17:01N 37°56' E 023°37'0 0.0
2017-Nov-07 16:30N 37°56' E 023°37'0 0.0
2017-Nov-07 16:01N 37°56' E 023°37'0 0.0
2017-Nov-07 15:31N 37°56' E 023°37'0 0.0
2017-Nov-07 15:01N 37°56' E 023°37'0 0.0
2017-Nov-07 14:30N 37°56' E 023°37'0 0.0
2017-Nov-07 14:00N 37°56' E 023°37'0 0.0
2017-Nov-07 13:31N 37°56' E 023°37'0 0.0
2017-Nov-07 13:00N 37°56' E 023°37'0 0.0
2017-Nov-07 12:31N 37°56' E 023°37'0 0.0
2017-Nov-07 12:01N 37°56' E 023°37'0 0.0
2017-Nov-07 11:31N 37°56' E 023°37'  

Dump ship's entire track history